Time;durP1;ratioP1;P1;durP2;ratioP2;P2;SDS_P1;SDS_P2;PMS_P1;PMS_P2;Temp;Humidity;BMP_temperature;BMP_pressure;BME280_temperature;BME280_humidity;BME280_pressure;Samples;Min_cycle;Max_cycle;Signal;HPM_P1;HPM_P2
2022/07/10 00:00:37;;;;;;;20.23;19.33;;;18.80;46.90;;;;;;6274017;22;20308;-72
2022/07/10 00:03:03;;;;;;;20.20;19.40;;;18.70;46.70;;;;;;6275585;22;20159;-72
2022/07/10 00:05:29;;;;;;;20.57;19.67;;;18.60;46.70;;;;;;6274066;22;20527;-73
2022/07/10 00:07:55;;;;;;;20.70;19.80;;;18.40;47.10;;;;;;6274130;22;20785;-73
2022/07/10 00:10:22;;;;;;;20.50;19.70;;;18.50;47.80;;;;;;6273788;22;20155;-72
2022/07/10 00:12:49;;;;;;;20.77;19.60;;;18.70;46.80;;;;;;6273933;22;20185;-72
2022/07/10 00:15:16;;;;;;;21.20;20.20;;;19.00;44.80;;;;;;6273966;22;20380;-73
2022/07/10 00:17:42;;;;;;;22.20;20.90;;;18.90;45.30;;;;;;6273831;22;20409;-72
2022/07/10 00:20:09;;;;;;;20.80;20.00;;;18.70;45.90;;;;;;6273593;22;20427;-72
2022/07/10 00:22:36;;;;;;;20.10;19.30;;;18.60;46.80;;;;;;6273959;22;20446;-72
2022/07/10 00:25:03;;;;;;;21.20;20.30;;;18.50;46.80;;;;;;6274076;22;20388;-73
2022/07/10 00:27:28;;;;;;;21.90;20.90;;;18.60;46.50;;;;;;6279362;22;20439;-73
2022/07/10 00:29:54;;;;;;;20.53;19.53;;;18.60;46.60;;;;;;6277079;22;20385;-73
2022/07/10 00:32:19;;;;;;;19.97;19.17;;;18.50;46.60;;;;;;6277421;22;20696;-73
2022/07/10 00:34:45;;;;;;;21.10;20.10;;;18.50;46.90;;;;;;6276330;22;20663;-73
2022/07/10 00:37:11;;;;;;;20.60;19.70;;;18.40;46.50;;;;;;6276118;22;20607;-73
2022/07/10 00:39:37;;;;;;;19.93;19.03;;;18.40;46.30;;;;;;6274949;22;20150;-73
2022/07/10 00:42:10;;;;;;;21.00;19.87;;;18.50;46.10;;;;;;6274337;22;20158;-73
2022/07/10 00:44:36;;;;;;;20.50;19.70;;;18.50;45.80;;;;;;6273826;22;20495;-72
2022/07/10 00:47:03;;;;;;;20.80;19.90;;;18.50;46.50;;;;;;6273776;22;20413;-72
2022/07/10 00:49:29;;;;;;;20.60;19.70;;;18.40;46.00;;;;;;6274830;22;20380;-72
2022/07/10 00:51:55;;;;;;;20.40;19.40;;;18.50;45.90;;;;;;6275632;22;20508;-73
2022/07/10 00:54:21;;;;;;;20.60;19.73;;;18.50;45.50;;;;;;6275878;22;20526;-73
2022/07/10 00:56:48;;;;;;;20.93;20.03;;;18.40;45.60;;;;;;6278037;22;20373;-72
2022/07/10 00:59:13;;;;;;;19.90;19.10;;;18.70;45.10;;;;;;6276074;22;20451;-72
2022/07/10 01:01:39;;;;;;;20.47;19.50;;;19.00;44.30;;;;;;6276240;22;20373;-72
2022/07/10 01:04:06;;;;;;;20.70;19.80;;;19.20;42.80;;;;;;6277842;22;20146;-72
2022/07/10 01:06:32;;;;;;;20.27;19.47;;;19.40;42.20;;;;;;6276487;22;20464;-72
2022/07/10 01:08:58;;;;;;;21.63;20.53;;;19.50;41.70;;;;;;6276112;22;20389;-72
2022/07/10 01:11:24;;;;;;;20.57;19.73;;;19.60;41.30;;;;;;6277259;22;20417;-72
2022/07/10 01:13:50;;;;;;;20.07;19.17;;;19.60;41.00;;;;;;6277616;22;20379;-72
2022/07/10 01:16:17;;;;;;;20.40;19.60;;;19.60;41.20;;;;;;6275884;22;20189;-72
2022/07/10 01:18:43;;;;;;;20.90;20.10;;;19.70;40.50;;;;;;6277607;22;20369;-72
2022/07/10 01:21:29;;;;;;;21.30;20.20;;;19.70;40.00;;;;;;6277317;22;20434;-72
2022/07/10 01:23:55;;;;;;;20.83;19.77;;;19.80;39.80;;;;;;6277530;22;20404;-72
2022/07/10 01:26:23;;;;;;;20.70;19.90;;;19.80;39.70;;;;;;6275772;22;20389;-73
2022/07/10 01:28:51;;;;;;;21.10;20.17;;;19.70;39.90;;;;;;6275889;22;20874;-72
2022/07/10 01:31:24;;;;;;;20.93;20.03;;;19.80;39.10;;;;;;6275527;22;20424;-72
2022/07/10 01:33:50;;;;;;;20.63;19.63;;;19.70;39.20;;;;;;6275921;22;20452;-73
2022/07/10 01:36:16;;;;;;;20.30;19.50;;;19.70;39.10;;;;;;6275918;22;20466;-72
2022/07/10 01:38:43;;;;;;;19.53;18.73;;;19.70;39.40;;;;;;6277514;22;20447;-73
2022/07/10 01:41:09;;;;;;;20.23;19.30;;;19.70;39.20;;;;;;6277392;22;20377;-72
2022/07/10 01:43:42;;;;;;;21.27;20.40;;;19.70;38.90;;;;;;6275667;22;20424;-72
2022/07/10 01:46:10;;;;;;;21.30;20.50;;;19.70;39.00;;;;;;6275810;22;20377;-72
2022/07/10 01:48:37;;;;;;;21.00;20.20;;;19.80;39.10;;;;;;6275904;22;20381;-73
2022/07/10 01:51:04;;;;;;;20.57;19.57;;;19.70;39.20;;;;;;6275374;22;20423;-72
2022/07/10 01:53:30;;;;;;;22.90;21.83;;;19.70;39.00;;;;;;6275697;22;20409;-72
2022/07/10 01:55:56;;;;;;;22.47;21.43;;;19.70;38.90;;;;;;6277282;22;20365;-72
2022/07/10 01:58:22;;;;;;;21.40;20.40;;;19.70;39.10;;;;;;6279335;22;20508;-73
2022/07/10 02:00:48;;;;;;;21.87;20.77;;;19.60;39.10;;;;;;6279596;22;20488;-72
2022/07/10 02:05:58;;;;;;;21.43;20.40;;;19.70;39.00;;;;;;6277324;22;20441;-72
2022/07/10 02:08:24;;;;;;;22.60;21.50;;;19.60;39.50;;;;;;6275507;22;20870;-72
2022/07/10 02:10:50;;;;;;;21.53;20.53;;;19.60;39.50;;;;;;6276825;22;20153;-72
2022/07/10 02:13:19;;;;;;;22.60;21.57;;;19.50;39.90;;;;;;6275422;22;20385;-72
2022/07/10 02:15:46;;;;;;;22.37;21.20;;;19.50;39.80;;;;;;6275470;22;20177;-72
2022/07/10 02:18:13;;;;;;;21.90;20.90;;;19.50;39.80;;;;;;6275210;22;20382;-72
2022/07/10 02:20:39;;;;;;;23.70;22.50;;;19.50;40.20;;;;;;6276889;22;20439;-72
2022/07/10 02:23:06;;;;;;;25.07;23.97;;;19.40;40.80;;;;;;6277010;22;20718;-72
2022/07/10 02:25:33;;;;;;;26.10;24.80;;;19.30;40.90;;;;;;6275453;22;20388;-72
2022/07/10 02:27:58;;;;;;;27.47;25.97;;;19.20;41.70;;;;;;6277020;22;20361;-72
2022/07/10 02:30:24;;;;;;;24.80;23.20;;;19.20;41.70;;;;;;6275181;22;20442;-72
2022/07/10 02:32:50;;;;;;;24.80;23.47;;;19.20;41.80;;;;;;6275414;22;20622;-72
2022/07/10 02:35:16;;;;;;;25.20;23.90;;;19.20;42.10;;;;;;6276673;22;20226;-72
2022/07/10 02:37:42;;;;;;;25.00;23.70;;;19.20;42.50;;;;;;6276942;22;20393;-72
2022/07/10 02:40:08;;;;;;;26.67;25.27;;;19.20;42.80;;;;;;6275100;22;20384;-72
2022/07/10 02:42:34;;;;;;;26.63;25.20;;;19.20;42.60;;;;;;6276786;22;20150;-72
2022/07/10 02:45:00;;;;;;;27.43;25.83;;;19.10;43.00;;;;;;6276680;22;20835;-72
2022/07/10 02:47:26;;;;;;;25.63;24.33;;;19.20;43.00;;;;;;6275469;22;20158;-72
2022/07/10 02:49:51;;;;;;;24.80;23.50;;;19.20;43.00;;;;;;6276676;22;20503;-72
2022/07/10 02:52:17;;;;;;;27.77;26.37;;;19.20;43.00;;;;;;6274826;22;20188;-72
2022/07/10 02:54:43;;;;;;;27.00;25.50;;;19.20;43.10;;;;;;6276683;22;20150;-72
2022/07/10 02:57:09;;;;;;;27.60;25.90;;;19.10;43.50;;;;;;6276535;22;20188;-72
2022/07/10 02:59:35;;;;;;;26.20;24.70;;;19.10;43.70;;;;;;6274909;22;20177;-72
2022/07/10 03:02:01;;;;;;;26.37;24.77;;;19.10;43.50;;;;;;6274929;22;20159;-72
2022/07/10 03:04:27;;;;;;;27.20;25.60;;;19.10;43.60;;;;;;6276468;22;20457;-72
2022/07/10 03:06:54;;;;;;;27.47;25.73;;;19.00;43.90;;;;;;6276641;22;20402;-72
2022/07/10 03:09:19;;;;;;;26.53;25.13;;;18.90;43.90;;;;;;6274900;22;20373;-72
2022/07/10 03:11:45;;;;;;;26.67;25.27;;;19.00;44.00;;;;;;6274236;22;20425;-72
2022/07/10 03:14:11;;;;;;;27.93;26.30;;;19.00;44.10;;;;;;6276281;22;20579;-72
2022/07/10 03:16:37;;;;;;;29.07;27.47;;;19.00;44.30;;;;;;6274798;22;20841;-72
2022/07/10 03:19:03;;;;;;;27.47;25.80;;;19.10;44.60;;;;;;6275169;22;20380;-72
2022/07/10 03:21:30;;;;;;;26.30;24.93;;;19.00;43.90;;;;;;6274638;22;20154;-72
2022/07/10 03:23:56;;;;;;;27.43;25.73;;;18.90;44.40;;;;;;6274762;22;20154;-72
2022/07/10 03:26:22;;;;;;;26.47;24.77;;;19.00;44.00;;;;;;6274709;22;20921;-72
2022/07/10 03:28:48;;;;;;;26.70;24.77;;;19.00;43.90;;;;;;6276338;22;20377;-72
2022/07/10 03:31:14;;;;;;;27.40;25.80;;;19.00;44.20;;;;;;6275977;22;20221;-72
2022/07/10 03:33:40;;;;;;;29.30;27.80;;;19.00;43.90;;;;;;6274675;22;20377;-72
2022/07/10 03:36:06;;;;;;;26.13;24.60;;;19.00;44.00;;;;;;6274746;22;20862;-72
2022/07/10 03:38:32;;;;;;;29.03;27.23;;;19.00;43.60;;;;;;6274485;22;20377;-72
2022/07/10 03:40:58;;;;;;;26.30;24.90;;;19.10;43.90;;;;;;6275936;22;20463;-72
2022/07/10 03:43:24;;;;;;;26.73;25.17;;;19.10;43.10;;;;;;6274262;22;20747;-72
2022/07/10 03:45:51;;;;;;;26.73;24.80;;;19.10;43.30;;;;;;6274610;22;20401;-72
2022/07/10 03:48:17;;;;;;;28.33;27.03;;;19.00;43.30;;;;;;6274464;22;20487;-72
2022/07/10 03:50:43;;;;;;;26.00;24.50;;;19.00;44.00;;;;;;6275795;22;20393;-72
2022/07/10 03:53:09;;;;;;;25.63;24.20;;;18.90;44.20;;;;;;6274377;22;20412;-72
2022/07/10 03:55:35;;;;;;;28.23;26.47;;;18.90;44.40;;;;;;6274247;22;20382;-72
2022/07/10 03:58:04;;;;;;;26.37;24.87;;;18.90;44.20;;;;;;6274323;22;20424;-72
2022/07/10 04:00:34;;;;;;;25.97;24.67;;;18.90;44.10;;;;;;6274091;22;20151;-72
2022/07/10 04:03:06;;;;;;;27.13;25.70;;;18.90;44.40;;;;;;6276132;22;20393;-72
2022/07/10 04:05:33;;;;;;;27.10;25.40;;;18.90;44.50;;;;;;6275873;22;20460;-71
2022/07/10 04:08:00;;;;;;;29.50;28.00;;;18.80;44.70;;;;;;6275910;22;20401;-72
2022/07/10 04:10:27;;;;;;;30.47;28.50;;;18.80;44.70;;;;;;6275767;22;20374;-72
2022/07/10 04:12:53;;;;;;;29.20;27.70;;;18.80;44.70;;;;;;6274268;22;20810;-72
2022/07/10 04:15:20;;;;;;;25.77;24.43;;;18.90;45.00;;;;;;6275965;22;20370;-72
2022/07/10 04:17:46;;;;;;;26.70;25.27;;;18.80;44.70;;;;;;6275931;22;20380;-72
2022/07/10 04:20:12;;;;;;;26.90;25.50;;;18.60;45.10;;;;;;6275628;22;20376;-72
2022/07/10 04:22:38;;;;;;;27.40;25.87;;;18.70;45.20;;;;;;6275662;22;20377;-72
2022/07/10 04:25:06;;;;;;;27.00;25.40;;;18.70;45.20;;;;;;6275966;22;20378;-72
2022/07/10 04:27:32;;;;;;;26.90;25.50;;;18.70;45.30;;;;;;6275777;22;20691;-72
2022/07/10 04:29:58;;;;;;;27.30;26.07;;;18.70;45.40;;;;;;6275502;22;20370;-72
2022/07/10 04:32:25;;;;;;;26.40;25.00;;;18.60;45.20;;;;;;6275483;22;20417;-72
2022/07/10 04:34:51;;;;;;;26.10;24.77;;;18.60;45.30;;;;;;6274184;22;20705;-72
2022/07/10 04:37:17;;;;;;;28.03;26.53;;;18.60;44.90;;;;;;6275505;22;20374;-72
2022/07/10 04:39:42;;;;;;;25.33;23.93;;;18.50;45.10;;;;;;6274095;22;20689;-72
2022/07/10 04:42:09;;;;;;;25.57;24.20;;;18.30;46.50;;;;;;6273935;22;20377;-72
2022/07/10 04:44:38;;;;;;;24.00;22.80;;;18.40;45.70;;;;;;6275506;22;20477;-72
2022/07/10 04:47:05;;;;;;;25.63;24.33;;;18.40;45.70;;;;;;6274159;22;20385;-72
2022/07/10 04:49:32;;;;;;;24.90;23.63;;;18.30;45.60;;;;;;6274099;22;20423;-72
2022/07/10 04:51:58;;;;;;;24.30;23.10;;;18.30;45.70;;;;;;6275830;22;20420;-72
2022/07/10 04:54:24;;;;;;;24.37;22.90;;;18.20;45.90;;;;;;6274003;22;20373;-72
2022/07/10 04:56:49;;;;;;;24.30;22.87;;;18.20;46.00;;;;;;6273947;22;20436;-72
2022/07/10 04:59:15;;;;;;;24.00;22.90;;;18.20;45.90;;;;;;6275683;22;20192;-72
2022/07/10 05:01:41;;;;;;;24.53;23.27;;;18.20;45.90;;;;;;6275500;22;20880;-72
2022/07/10 05:04:08;;;;;;;25.07;23.57;;;18.10;46.40;;;;;;6275511;22;20150;-71
2022/07/10 05:06:34;;;;;;;23.73;22.53;;;18.10;46.50;;;;;;6275624;22;20280;-72
2022/07/10 05:09:00;;;;;;;23.77;22.57;;;18.10;46.00;;;;;;6274365;22;20952;-72
2022/07/10 05:11:27;;;;;;;23.23;22.03;;;18.10;45.70;;;;;;6273651;22;20559;-74
2022/07/10 05:13:52;;;;;;;22.97;21.93;;;18.10;45.60;;;;;;6277572;22;20381;-72
2022/07/10 05:16:18;;;;;;;23.87;22.67;;;18.20;45.10;;;;;;6279246;22;20372;-73
2022/07/10 05:18:48;;;;;;;23.47;22.37;;;18.30;44.50;;;;;;6274100;22;20197;-72
2022/07/10 05:21:13;;;;;;;22.30;21.00;;;18.20;44.80;;;;;;6273739;22;20405;-71
2022/07/10 05:23:39;;;;;;;22.60;21.60;;;18.10;45.10;;;;;;6274224;22;20703;-72
2022/07/10 05:26:05;;;;;;;22.50;21.40;;;18.20;44.60;;;;;;6274045;22;20494;-72
2022/07/10 05:28:31;;;;;;;24.23;23.00;;;18.20;44.00;;;;;;6273921;22;20385;-72
2022/07/10 05:30:58;;;;;;;21.63;20.60;;;18.20;43.80;;;;;;6275407;22;20868;-72
2022/07/10 05:33:28;;;;;;;20.30;19.40;;;18.20;43.80;;;;;;6275538;22;20208;-72
2022/07/10 05:35:55;;;;;;;21.70;20.40;;;18.10;44.80;;;;;;6300808;22;20472;-72
2022/07/10 05:38:21;;;;;;;22.10;21.10;;;18.20;43.70;;;;;;6277496;22;20456;-71
2022/07/10 05:40:46;;;;;;;22.00;21.00;;;18.30;43.30;;;;;;6279355;22;20365;-72
2022/07/10 05:43:12;;;;;;;21.90;20.87;;;18.40;42.90;;;;;;6281082;22;20384;-73
2022/07/10 05:45:38;;;;;;;21.63;20.53;;;18.50;41.70;;;;;;6279772;22;20179;-72
2022/07/10 05:48:04;;;;;;;21.90;20.70;;;18.30;40.40;;;;;;6278554;22;20381;-73
2022/07/10 05:50:30;;;;;;;23.10;21.70;;;18.30;41.40;;;;;;6277111;22;20439;-72
2022/07/10 05:52:56;;;;;;;20.83;19.73;;;18.30;41.30;;;;;;6277948;22;20420;-72
2022/07/10 05:55:23;;;;;;;20.33;19.43;;;18.30;40.30;;;;;;6276115;22;20154;-72
2022/07/10 05:57:50;;;;;;;20.33;19.53;;;18.30;39.10;;;;;;6275926;22;20485;-71
2022/07/10 06:00:16;;;;;;;19.80;18.90;;;18.30;37.00;;;;;;6275513;22;20381;-72
2022/07/10 06:02:42;;;;;;;19.60;18.90;;;18.30;38.00;;;;;;6277172;22;20412;-71
2022/07/10 06:05:08;;;;;;;19.10;18.40;;;18.20;37.40;;;;;;6275587;22;20165;-71
2022/07/10 06:07:34;;;;;;;20.17;19.17;;;18.20;38.70;;;;;;6275377;22;20381;-72
2022/07/10 06:10:00;;;;;;;20.00;19.17;;;18.30;37.90;;;;;;6275315;22;20382;-72
2022/07/10 06:12:26;;;;;;;19.70;18.80;;;18.30;37.90;;;;;;6275400;22;20479;-72
2022/07/10 06:14:51;;;;;;;19.63;18.83;;;18.30;37.10;;;;;;6276967;22;20377;-72
2022/07/10 06:17:17;;;;;;;19.97;19.07;;;18.20;37.70;;;;;;6275425;22;20178;-71
2022/07/10 06:19:43;;;;;;;19.50;18.70;;;18.20;37.20;;;;;;6275275;22;20201;-71
2022/07/10 06:24:53;;;;;;;19.50;18.60;;;18.20;37.50;;;;;;6276984;22;20178;-71
2022/07/10 06:27:19;;;;;;;20.13;19.13;;;18.10;38.20;;;;;;6275265;22;20637;-71
2022/07/10 06:29:44;;;;;;;19.40;18.60;;;18.00;38.50;;;;;;6275342;22;20158;-72
2022/07/10 06:32:10;;;;;;;19.97;19.07;;;18.00;38.50;;;;;;6275241;22;20564;-71
2022/07/10 06:34:36;;;;;;;21.03;19.50;;;18.10;38.60;;;;;;6275156;22;20706;-71
2022/07/10 06:37:02;;;;;;;19.60;18.90;;;18.10;37.20;;;;;;6276885;22;20366;-72
2022/07/10 06:39:34;;;;;;;19.77;19.00;;;18.10;37.80;;;;;;6275116;22;20192;-71
2022/07/10 06:42:01;;;;;;;19.90;19.10;;;18.10;36.40;;;;;;6274978;22;20405;-72
2022/07/10 06:44:26;;;;;;;19.90;19.10;;;18.10;36.50;;;;;;6275182;22;20409;-73
2022/07/10 06:49:36;;;;;;;19.90;19.10;;;18.00;37.30;;;;;;6276899;22;20142;-71
2022/07/10 06:52:02;;;;;;;19.50;18.70;;;18.10;37.70;;;;;;6274592;22;20429;-71
2022/07/10 06:54:28;;;;;;;19.27;18.53;;;18.10;38.10;;;;;;6274928;22;20420;-71
2022/07/10 06:56:54;;;;;;;19.47;18.73;;;18.10;37.80;;;;;;6276521;22;20383;-72
2022/07/10 06:59:20;;;;;;;19.73;18.93;;;18.10;36.00;;;;;;6274903;22;20592;-72
2022/07/10 07:01:45;;;;;;;19.17;18.37;;;18.10;36.00;;;;;;6276333;22;20154;-72
2022/07/10 07:04:11;;;;;;;18.93;18.23;;;18.10;35.30;;;;;;6274933;22;20163;-72
2022/07/10 07:06:37;;;;;;;18.90;18.10;;;18.10;34.70;;;;;;6274997;22;20155;-72
2022/07/10 07:09:03;;;;;;;19.17;18.37;;;18.10;35.30;;;;;;6276704;22;20204;-72
2022/07/10 07:11:29;;;;;;;18.73;17.63;;;18.00;34.70;;;;;;6274576;22;20495;-72
2022/07/10 07:13:54;;;;;;;17.53;16.70;;;18.10;34.40;;;;;;6276341;22;20514;-72
2022/07/10 07:16:27;;;;;;;19.27;18.20;;;18.10;33.70;;;;;;6276504;22;20142;-72
2022/07/10 07:18:55;;;;;;;18.30;17.60;;;18.10;35.00;;;;;;6275045;22;20598;-71
2022/07/10 07:24:05;;;;;;;17.27;16.57;;;18.30;33.60;;;;;;6276333;22;20361;-71
2022/07/10 07:26:31;;;;;;;18.70;17.83;;;18.40;33.50;;;;;;6275281;22;20523;-71
2022/07/10 07:28:57;;;;;;;18.10;17.40;;;18.30;33.20;;;;;;6276219;22;20857;-71
2022/07/10 07:31:23;;;;;;;17.33;16.50;;;18.20;32.40;;;;;;6276077;22;20416;-71
2022/07/10 07:33:49;;;;;;;16.23;15.53;;;18.10;32.60;;;;;;6276217;22;20151;-71
2022/07/10 07:36:15;;;;;;;17.43;16.73;;;18.00;33.10;;;;;;6276306;22;20370;-71
2022/07/10 07:38:41;;;;;;;18.20;17.27;;;17.90;33.60;;;;;;6276337;22;20366;-71
2022/07/10 07:41:08;;;;;;;18.40;17.60;;;17.80;33.70;;;;;;6274547;22;20472;-71
2022/07/10 07:43:34;;;;;;;17.53;16.83;;;18.00;33.80;;;;;;6274438;22;20404;-71
2022/07/10 07:46:00;;;;;;;18.17;17.47;;;18.00;32.80;;;;;;6274721;22;20366;-72
2022/07/10 07:48:26;;;;;;;17.30;16.70;;;18.10;32.00;;;;;;6276071;22;20181;-71
2022/07/10 07:50:51;;;;;;;17.10;16.40;;;18.10;31.30;;;;;;6274164;22;20159;-71
2022/07/10 07:53:17;;;;;;;17.13;16.33;;;18.10;32.10;;;;;;6276163;22;20393;-71
2022/07/10 07:55:43;;;;;;;16.93;16.27;;;18.10;31.80;;;;;;6276093;22;20644;-71
2022/07/10 07:58:09;;;;;;;17.13;16.47;;;18.10;32.50;;;;;;6300035;22;20377;-71
2022/07/10 08:00:35;;;;;;;18.03;17.20;;;18.20;31.80;;;;;;6274267;22;20147;-71
2022/07/10 08:03:01;;;;;;;17.33;16.43;;;18.20;31.70;;;;;;6274486;22;20151;-71
2022/07/10 08:05:27;;;;;;;16.90;16.20;;;18.20;30.50;;;;;;6274470;22;20159;-71
2022/07/10 08:07:55;;;;;;;17.13;16.43;;;18.10;30.40;;;;;;6275888;22;20373;-71
2022/07/10 08:10:23;;;;;;;17.30;16.33;;;18.20;31.50;;;;;;6274115;22;20377;-71
2022/07/10 08:12:50;;;;;;;16.40;15.80;;;18.20;31.30;;;;;;6274592;22;20421;-72
2022/07/10 08:15:18;;;;;;;17.23;16.60;;;18.30;29.30;;;;;;6274298;22;20374;-71
2022/07/10 08:17:47;;;;;;;16.50;15.63;;;18.40;29.50;;;;;;6274311;22;20389;-71
2022/07/10 08:20:14;;;;;;;16.53;15.77;;;18.40;28.90;;;;;;6275780;22;20689;-71
2022/07/10 08:22:42;;;;;;;16.73;16.03;;;18.40;28.90;;;;;;6274271;22;20385;-71
2022/07/10 08:25:24;;;;;;;16.17;15.43;;;18.40;28.90;;;;;;6276003;22;20392;-72
2022/07/10 08:27:51;;;;;;;18.10;16.63;;;18.50;28.80;;;;;;6276567;22;20377;-71
2022/07/10 08:30:17;;;;;;;16.40;15.70;;;18.40;28.90;;;;;;6274547;22;20468;-72
2022/07/10 08:32:43;;;;;;;16.07;15.57;;;18.20;31.40;;;;;;6275761;22;20470;-71
2022/07/10 08:35:10;;;;;;;15.83;15.13;;;18.20;29.00;;;;;;6274409;22;20412;-71
2022/07/10 08:37:40;;;;;;;16.33;15.60;;;18.40;29.60;;;;;;6274117;22;20198;-72
2022/07/10 08:40:08;;;;;;;15.70;15.20;;;18.40;28.90;;;;;;6275384;22;20365;-71
2022/07/10 08:42:35;;;;;;;16.63;16.00;;;18.50;29.00;;;;;;6275918;22;20461;-71
2022/07/10 08:45:01;;;;;;;16.67;16.07;;;18.50;29.00;;;;;;6274099;22;20396;-71
2022/07/10 08:47:30;;;;;;;16.40;15.70;;;18.60;28.10;;;;;;6274404;22;20409;-71
2022/07/10 08:49:57;;;;;;;17.63;16.50;;;18.60;28.00;;;;;;6274108;22;20388;-71
2022/07/10 08:52:48;;;;;;;16.20;15.60;;;18.60;29.30;;;;;;6274069;22;20417;-71
2022/07/10 08:55:14;;;;;;;16.57;15.53;;;18.70;28.40;;;;;;6274214;22;20380;-71
2022/07/10 08:57:42;;;;;;;15.80;15.20;;;18.70;27.00;;;;;;6274134;22;20756;-71
2022/07/10 09:00:09;;;;;;;15.93;15.33;;;18.70;27.10;;;;;;6274170;22;20657;-71
2022/07/10 09:02:35;;;;;;;14.60;14.10;;;18.60;26.30;;;;;;6274211;22;20420;-71
2022/07/10 09:05:04;;;;;;;16.13;15.53;;;18.50;27.10;;;;;;6274009;22;20373;-71
2022/07/10 09:07:41;;;;;;;16.13;15.40;;;18.50;27.80;;;;;;6274187;22;20472;-71
2022/07/10 09:10:10;;;;;;;16.10;15.40;;;18.50;27.40;;;;;;6274430;22;20381;-71
2022/07/10 09:13:08;;;;;;;15.93;15.23;;;18.40;27.40;;;;;;6275870;22;20798;-71
2022/07/10 09:15:34;;;;;;;16.20;15.30;;;18.50;29.00;;;;;;6209874;22;20432;-71
2022/07/10 09:18:05;;;;;;;15.93;15.33;;;18.60;26.60;;;;;;6276021;22;20430;-71
2022/07/10 09:20:34;;;;;;;15.90;15.20;;;18.60;27.40;;;;;;6275834;22;20385;-71
2022/07/10 09:23:17;;;;;;;15.50;14.90;;;18.70;27.00;;;;;;6276194;22;20378;-72
2022/07/10 09:25:44;;;;;;;15.50;14.60;;;18.80;26.00;;;;;;6276414;22;20377;-72
2022/07/10 09:28:10;;;;;;;15.87;15.00;;;18.90;25.40;;;;;;6277736;22;20639;-71
2022/07/10 09:30:38;;;;;;;14.97;14.13;;;18.90;25.50;;;;;;6277386;22;20377;-71
2022/07/10 09:33:25;;;;;;;15.17;14.57;;;19.00;25.20;;;;;;6276190;22;20738;-71
2022/07/10 09:36:10;;;;;;;15.73;15.10;;;19.00;25.50;;;;;;6275935;22;20381;-71
2022/07/10 09:38:48;;;;;;;14.93;14.13;;;19.00;25.00;;;;;;6276000;22;20713;-71
2022/07/10 09:41:32;;;;;;;14.80;14.17;;;19.00;24.80;;;;;;6275575;22;20860;-71
2022/07/10 09:44:00;;;;;;;15.00;14.47;;;18.80;24.90;;;;;;6275658;22;20776;-71
2022/07/10 09:46:32;;;;;;;15.93;14.93;;;18.90;25.10;;;;;;6275850;22;20689;-71
2022/07/10 09:49:10;;;;;;;14.50;13.97;;;18.80;25.20;;;;;;6275715;22;20397;-71
2022/07/10 09:51:40;;;;;;;15.00;14.30;;;18.70;25.30;;;;;;6275615;22;20427;-71
2022/07/10 09:54:08;;;;;;;14.73;14.20;;;18.70;24.80;;;;;;6277382;22;20374;-71
2022/07/10 09:56:41;;;;;;;14.53;14.00;;;18.90;24.10;;;;;;6275736;22;20472;-71
2022/07/10 09:59:18;;;;;;;14.30;13.80;;;18.90;24.80;;;;;;6275664;22;20385;-71
2022/07/10 10:02:09;;;;;;;14.20;13.70;;;19.00;24.30;;;;;;6277021;22;20377;-71
2022/07/10 10:04:37;;;;;;;15.00;14.37;;;19.00;24.20;;;;;;6275833;22;20385;-71
2022/07/10 10:07:12;;;;;;;13.83;13.40;;;19.30;23.80;;;;;;6275694;22;20667;-71
2022/07/10 10:09:45;;;;;;;14.87;13.97;;;19.50;23.60;;;;;;6275651;22;20392;-72
2022/07/10 10:12:29;;;;;;;13.43;13.00;;;19.30;23.40;;;;;;6275414;22;20424;-72
2022/07/10 10:14:57;;;;;;;13.80;13.30;;;19.30;23.60;;;;;;6277217;22;20360;-71
2022/07/10 10:17:26;;;;;;;14.70;14.10;;;19.30;25.00;;;;;;6275420;22;20387;-71
2022/07/10 10:22:45;;;;;;;20.23;19.10;;;19.50;23.50;;;;;;6276716;22;20361;-72
2022/07/10 10:25:16;;;;;;;14.80;14.30;;;19.70;22.80;;;;;;6276886;22;20381;-71
2022/07/10 10:27:44;;;;;;;15.37;14.77;;;19.70;24.10;;;;;;6275406;22;20389;-71
2022/07/10 10:30:10;;;;;;;14.97;14.43;;;19.90;22.70;;;;;;6275173;22;20381;-72
2022/07/10 10:32:42;;;;;;;15.70;14.50;;;20.20;21.80;;;;;;6276789;22;20409;-71
2022/07/10 10:35:10;;;;;;;15.43;14.83;;;20.10;21.80;;;;;;6275681;22;20388;-72
2022/07/10 10:37:39;;;;;;;14.33;13.83;;;20.30;21.70;;;;;;6276843;22;20381;-71
2022/07/10 10:40:09;;;;;;;14.97;14.33;;;20.20;21.20;;;;;;6278986;22;20672;-71
2022/07/10 11:01:16;;;;;;;15.23;14.53;;;20.30;21.30;;;;;;6196343;23;20440;-82
2022/07/10 11:07:58;;;;;;;14.60;13.83;;;19.80;22.70;;;;;;6174244;23;20459;-81
2022/07/10 11:11:31;;;;;;;15.90;15.00;;;19.80;21.60;;;;;;6196538;22;20439;-81
2022/07/10 11:14:52;;;;;;;15.07;14.43;;;19.90;21.00;;;;;;6286206;22;20430;-81
2022/07/10 11:17:30;;;;;;;13.13;12.73;;;19.90;21.30;;;;;;6260759;22;20388;-82
2022/07/10 11:20:45;;;;;;;14.20;13.60;;;19.90;20.60;;;;;;6281468;22;20468;-82
2022/07/10 11:23:49;;;;;;;14.40;13.73;;;20.00;20.30;;;;;;6288741;22;20407;-81
2022/07/10 11:27:04;;;;;;;14.60;14.00;;;20.10;19.50;;;;;;6289829;22;20793;-82
2022/07/10 11:30:24;;;;;;;13.60;13.20;;;20.10;19.90;;;;;;6289948;22;20749;-82
2022/07/10 11:33:23;;;;;;;15.17;14.37;;;20.00;18.60;;;;;;6234224;23;20561;-81
2022/07/10 11:37:29;;;;;;;;;;;;;;;;;;;;;
2022/07/10 11:40:22;;;;;;;14.53;13.83;;;20.40;19.00;;;;;;6264518;22;20423;-81
2022/07/10 11:43:57;;;;;;;14.30;13.77;;;20.60;17.00;;;;;;6269050;22;20393;-81
2022/07/10 11:51:00;;;;;;;15.47;14.77;;;20.70;18.70;;;;;;6195841;23;20419;-82
2022/07/10 11:54:29;;;;;;;14.27;13.73;;;20.60;18.80;;;;;;6196146;23;20396;-82
2022/07/10 12:05:23;;;;;;;;;;;;;;;;;;;;;
2022/07/10 12:08:54;;;;;;;13.60;13.10;;;20.10;18.40;;;;;;6050300;23;20391;-83
2022/07/10 12:12:30;;;;;;;13.93;13.43;;;20.10;18.60;;;;;;5974735;23;20777;-83
2022/07/10 12:16:20;;;;;;;13.33;12.90;;;20.20;18.80;;;;;;6019862;23;20405;-83
2022/07/10 12:19:33;;;;;;;13.63;13.13;;;20.30;18.20;;;;;;6128473;23;20870;-82
2022/07/10 12:25:56;;;;;;;13.87;13.47;;;20.20;17.50;;;;;;6252502;22;20405;-80
2022/07/10 12:28:35;;;;;;;14.03;13.43;;;20.40;16.60;;;;;;6256795;23;20834;-82
2022/07/10 12:31:52;;;;;;;14.03;13.43;;;20.30;16.90;;;;;;6235595;23;20442;-82
2022/07/10 12:34:50;;;;;;;14.00;13.50;;;20.30;16.10;;;;;;6257397;22;20432;-85
2022/07/10 12:41:49;;;;;;;13.67;13.20;;;20.30;16.00;;;;;;6258206;23;20417;-82
2022/07/10 12:44:51;;;;;;;12.63;12.23;;;20.40;16.70;;;;;;6165014;23;20399;-81
2022/07/10 12:51:21;;;;;;;13.70;13.20;;;20.20;17.30;;;;;;6196977;23;20725;-81
2022/07/10 12:54:34;;;;;;;13.50;13.00;;;20.30;17.30;;;;;;6171114;23;20392;-81
2022/07/10 13:01:23;;;;;;;13.30;12.60;;;20.30;16.30;;;;;;6196997;23;20370;-81
2022/07/10 13:11:00;;;;;;;13.00;12.60;;;20.70;16.80;;;;;;6080320;23;20943;-81
2022/07/10 13:14:07;;;;;;;12.90;12.30;;;20.60;16.90;;;;;;6137880;23;20380;-83
2022/07/10 13:17:48;;;;;;;13.30;12.70;;;20.70;16.50;;;;;;6137219;23;20415;-81
2022/07/10 13:21:10;;;;;;;12.60;12.20;;;20.60;15.80;;;;;;6138060;23;20380;-81
2022/07/10 13:34:15;;;;;;;12.50;12.00;;;20.30;16.10;;;;;;6197547;23;20478;-80
2022/07/10 13:44:33;;;;;;;13.40;12.50;;;20.40;16.40;;;;;;6085809;23;20474;-81
2022/07/10 13:54:35;;;;;;;13.10;12.60;;;20.30;17.10;;;;;;6167225;23;20411;-81
2022/07/10 13:57:49;;;;;;;13.17;12.77;;;20.40;17.40;;;;;;6166987;23;20385;-80
2022/07/10 14:01:35;;;;;;;13.37;12.87;;;20.50;16.70;;;;;;6136728;23;20378;-80
2022/07/10 14:04:40;;;;;;;13.20;12.60;;;20.70;16.30;;;;;;6095858;23;20849;-81
2022/07/10 14:08:09;;;;;;;13.20;12.80;;;20.90;15.90;;;;;;6137398;23;20385;-80
2022/07/10 14:14:54;;;;;;;13.70;13.20;;;20.80;15.70;;;;;;6072856;23;20449;-81
2022/07/10 14:25:12;;;;;;;13.30;12.87;;;20.80;16.20;;;;;;6195769;23;20470;-83
2022/07/10 14:28:42;;;;;;;13.30;12.80;;;20.70;16.10;;;;;;6223136;23;20399;-82
2022/07/10 14:32:05;;;;;;;12.97;12.47;;;20.60;16.40;;;;;;6198609;23;20427;-82
2022/07/10 14:35:34;;;;;;;12.93;12.43;;;20.70;17.20;;;;;;6197519;23;20408;-83
2022/07/10 14:38:38;;;;;;;12.73;12.30;;;20.80;15.50;;;;;;6199536;23;20392;-82
2022/07/10 14:45:45;;;;;;;13.13;12.63;;;20.70;15.70;;;;;;6199404;23;20403;-82
2022/07/10 14:52:59;;;;;;;12.87;12.47;;;20.80;15.80;;;;;;6090513;23;20477;-83
2022/07/10 14:56:25;;;;;;;13.37;12.97;;;20.80;15.90;;;;;;6078869;23;20926;-83
2022/07/10 15:00:06;;;;;;;13.10;12.70;;;20.80;16.30;;;;;;6166775;23;20384;-83